createdAt,value
2018-06-29T00:01:34.133Z,92761.94
2018-06-29T00:04:03.077Z,92765.95
2018-06-29T00:06:31.898Z,92756.86
2018-06-29T00:09:00.733Z,92756.97
2018-06-29T00:11:29.645Z,92753.75
2018-06-29T00:13:58.435Z,92748.78
2018-06-29T00:16:27.278Z,92752.94
2018-06-29T00:18:56.427Z,92748.02
2018-06-29T00:21:25.201Z,92739.48
2018-06-29T00:23:53.992Z,92734.78
2018-06-29T00:26:22.816Z,92733.39
2018-06-29T00:28:51.581Z,92737.64
2018-06-29T00:31:20.340Z,92737.52
2018-06-29T00:33:49.181Z,92747.75
2018-06-29T00:36:17.961Z,92748.68
2018-06-29T00:38:46.728Z,92748.44
2018-06-29T00:41:15.749Z,92749.59
2018-06-29T00:43:44.509Z,92751.22
2018-06-29T00:46:13.290Z,92745.92
2018-06-29T00:48:42.616Z,92737.97
2018-06-29T00:51:11.396Z,92743.36
2018-06-29T00:53:40.242Z,92736.37
2018-06-29T00:56:09.276Z,92735.57
2018-06-29T00:58:38.045Z,92734.66
2018-06-29T01:01:06.887Z,92733.95
2018-06-29T01:03:35.860Z,92735.00
2018-06-29T01:06:04.648Z,92731.09
2018-06-29T01:08:33.427Z,92734.30
2018-06-29T01:11:02.264Z,92735.55
2018-06-29T01:13:31.049Z,92732.56
2018-06-29T01:15:59.874Z,92734.41
2018-06-29T01:18:28.830Z,92736.14
2018-06-29T01:20:57.612Z,92734.30
2018-06-29T01:23:26.400Z,92740.27
2018-06-29T01:25:55.531Z,92729.01
2018-06-29T01:28:24.379Z,92733.61
2018-06-29T01:30:53.217Z,92740.28
2018-06-29T01:33:22.152Z,92737.42
2018-06-29T01:35:51.131Z,92742.48
2018-06-29T01:38:19.906Z,92738.79
2018-06-29T01:40:48.826Z,92741.22
2018-06-29T01:43:17.673Z,92735.00
2018-06-29T01:45:46.484Z,92733.62
2018-06-29T01:48:15.306Z,92728.66
2018-06-29T01:50:44.085Z,92725.67
2018-06-29T01:53:12.850Z,92728.09
2018-06-29T01:55:41.947Z,92729.48
2018-06-29T01:58:10.734Z,92723.25
2018-06-29T02:00:39.506Z,92714.52
2018-06-29T02:03:08.346Z,92703.13
2018-06-29T02:05:37.176Z,92709.11
2018-06-29T02:08:06.104Z,92719.92
2018-06-29T02:10:35.339Z,92708.40
2018-06-29T02:13:04.197Z,92711.86
2018-06-29T02:15:32.996Z,92714.86
2018-06-29T02:18:01.823Z,92708.52
2018-06-29T02:20:30.625Z,92701.17
2018-06-29T02:22:59.392Z,92691.73
2018-06-29T02:25:28.226Z,92696.33
2018-06-29T02:27:57.014Z,92694.38
2018-06-29T02:30:25.960Z,92695.39
2018-06-29T02:32:55.133Z,92697.81
2018-06-29T02:35:23.963Z,92701.95
2018-06-29T02:37:52.706Z,92704.05
2018-06-29T02:40:21.521Z,92710.94
2018-06-29T02:42:50.334Z,92706.23
2018-06-29T02:45:19.104Z,92719.46
2018-06-29T02:47:48.244Z,92716.58
2018-06-29T02:50:17.024Z,92720.13
2018-06-29T02:52:45.796Z,92720.50
2018-06-29T02:55:14.669Z,92717.48
2018-06-29T02:57:43.450Z,92714.63
2018-06-29T03:00:12.278Z,92715.42
2018-06-29T03:02:41.090Z,92715.79
2018-06-29T03:05:09.855Z,92721.97
2018-06-29T03:07:38.647Z,92715.66
2018-06-29T03:10:07.516Z,92712.20
2018-06-29T03:12:36.328Z,92717.84
2018-06-29T03:15:05.284Z,92712.06
2018-06-29T03:17:34.120Z,92711.62
2018-06-29T03:20:02.914Z,92716.42
2018-06-29T03:22:31.675Z,92719.89
2018-06-29T03:25:00.556Z,92715.07
2018-06-29T03:27:29.365Z,92713.89
2018-06-29T03:29:58.136Z,92711.70
2018-06-29T03:32:27.113Z,92716.98
2018-06-29T03:34:55.905Z,92709.98
2018-06-29T03:37:24.741Z,92714.12
2018-06-29T03:39:53.599Z,92704.35
2018-06-29T03:42:22.382Z,92715.77
2018-06-29T03:44:51.178Z,92708.28
2018-06-29T03:47:20.012Z,92707.12
2018-06-29T03:49:48.785Z,92706.55
2018-06-29T03:52:17.619Z,92711.73
2018-06-29T03:54:46.464Z,92720.03
2018-06-29T03:57:15.244Z,92713.69
2018-06-29T03:59:44.044Z,92715.19
2018-06-29T04:02:12.880Z,92724.50
2018-06-29T04:04:41.879Z,92720.59
2018-06-29T04:07:10.669Z,92729.93
2018-06-29T04:09:39.489Z,92716.81
2018-06-29T04:12:08.358Z,92724.86
2018-06-29T04:14:37.157Z,92723.59
2018-06-29T04:17:06.323Z,92721.55
2018-06-29T04:19:35.130Z,92708.05
2018-06-29T04:22:03.940Z,92707.63
2018-06-29T04:24:32.979Z,92714.17
2018-06-29T04:27:01.730Z,92707.37
2018-06-29T04:29:30.505Z,92702.55
2018-06-29T04:31:59.647Z,92702.07
2018-06-29T04:34:28.420Z,92695.62
2018-06-29T04:36:57.192Z,92695.97
2018-06-29T04:39:25.985Z,92697.70
2018-06-29T04:41:54.796Z,92697.81
2018-06-29T04:44:23.563Z,92704.62
2018-06-29T04:46:52.400Z,92711.86
2018-06-29T04:49:21.195Z,92705.52
2018-06-29T04:51:50.012Z,92704.84
2018-06-29T04:54:18.832Z,92692.42
2018-06-29T04:56:47.615Z,92699.89
2018-06-29T04:59:16.413Z,92699.87
2018-06-29T05:01:45.411Z,92694.81
2018-06-29T05:04:14.183Z,92695.67
2018-06-29T05:06:42.935Z,92699.57
2018-06-29T05:09:11.727Z,92699.79
2018-06-29T05:11:40.499Z,92704.27
2018-06-29T05:14:09.280Z,92700.22
2018-06-29T05:16:38.217Z,92700.52
2018-06-29T05:19:07.017Z,92697.02
2018-06-29T05:21:35.791Z,92700.75
2018-06-29T05:24:04.729Z,92697.78
2018-06-29T05:26:33.540Z,92694.73
2018-06-29T05:29:02.328Z,92697.73
2018-06-29T05:31:31.132Z,92692.59
2018-06-29T05:33:59.974Z,92699.67
2018-06-29T05:36:28.794Z,92707.00
2018-06-29T05:38:57.607Z,92707.52
2018-06-29T05:41:26.522Z,92703.25
2018-06-29T05:43:55.277Z,92708.00
2018-06-29T05:46:24.143Z,92712.31
2018-06-29T05:48:52.936Z,92706.55
2018-06-29T05:51:21.802Z,92709.30
2018-06-29T05:53:50.943Z,92712.07
2018-06-29T05:56:19.734Z,92724.30
2018-06-29T05:58:48.530Z,92724.20
2018-06-29T06:01:17.427Z,92712.78
2018-06-29T06:03:46.265Z,92715.09
2018-06-29T06:06:15.037Z,92716.01
2018-06-29T06:08:43.845Z,92718.41
2018-06-29T06:11:12.614Z,92717.95
2018-06-29T06:13:41.413Z,92712.75
2018-06-29T06:16:10.631Z,92716.28
2018-06-29T06:18:39.370Z,92711.05
2018-06-29T06:21:08.282Z,92719.59
2018-06-29T06:23:37.097Z,92716.95
2018-06-29T06:26:05.879Z,92718.04
2018-06-29T06:28:34.753Z,92719.09
2018-06-29T06:31:03.741Z,92720.45
2018-06-29T06:33:32.509Z,92713.83
2018-06-29T06:36:01.327Z,92727.80
2018-06-29T06:38:30.265Z,92735.50
2018-06-29T06:40:59.043Z,92734.55
2018-06-29T06:43:27.823Z,92736.94
2018-06-29T06:45:56.644Z,92735.03
2018-06-29T06:48:25.408Z,92733.58
2018-06-29T06:50:54.242Z,92734.59
2018-06-29T06:53:23.083Z,92734.44
2018-06-29T06:55:51.855Z,92733.85
2018-06-29T06:58:20.698Z,92734.27
2018-06-29T07:00:49.700Z,92730.09
2018-06-29T07:03:18.494Z,92733.85
2018-06-29T07:05:47.274Z,92732.66
2018-06-29T07:08:16.078Z,92734.34
2018-06-29T07:10:44.899Z,92733.77
2018-06-29T07:13:13.691Z,92725.17
2018-06-29T07:15:42.507Z,92726.14
2018-06-29T07:18:11.318Z,92728.71
2018-06-29T07:20:40.098Z,92734.23
2018-06-29T07:23:09.081Z,92733.28
2018-06-29T07:25:37.891Z,92738.89
2018-06-29T07:28:06.998Z,92730.67
2018-06-29T07:30:36.106Z,92729.03
2018-06-29T07:33:04.877Z,92724.84
2018-06-29T07:35:33.677Z,92723.79
2018-06-29T07:38:02.500Z,92717.34
2018-06-29T07:40:31.319Z,92726.80
2018-06-29T07:43:00.087Z,92723.09
2018-06-29T07:45:29.240Z,92718.76
2018-06-29T07:47:58.031Z,92722.05
2018-06-29T07:50:26.837Z,92722.16
2018-06-29T07:52:55.999Z,92725.11
2018-06-29T07:55:24.807Z,92721.72
2018-06-29T07:57:53.587Z,92723.35
2018-06-29T08:00:22.393Z,92717.27
2018-06-29T08:02:51.151Z,92711.16
2018-06-29T08:05:19.951Z,92715.40
2018-06-29T08:07:48.868Z,92724.72
2018-06-29T08:10:17.659Z,92720.16
2018-06-29T08:12:46.450Z,92720.28
2018-06-29T08:15:15.238Z,92715.75
2018-06-29T08:17:43.989Z,92727.33
2018-06-29T08:20:12.793Z,92731.00
2018-06-29T08:22:41.583Z,92728.64
2018-06-29T08:25:13.189Z,92720.89
2018-06-29T08:27:42.291Z,92721.89
2018-06-29T08:30:12.034Z,92723.17
2018-06-29T08:32:40.922Z,92724.73
2018-06-29T08:35:10.751Z,92724.05
2018-06-29T08:37:40.065Z,92729.53
2018-06-29T08:40:09.968Z,92719.96
2018-06-29T08:42:38.920Z,92720.19
2018-06-29T08:45:08.741Z,92723.35
2018-06-29T08:47:37.556Z,92719.27
2018-06-29T08:50:06.615Z,92721.08
2018-06-29T08:52:35.403Z,92727.11
2018-06-29T08:55:04.591Z,92723.07
2018-06-29T08:57:33.421Z,92725.41
2018-06-29T09:00:02.256Z,92721.48
2018-06-29T09:02:31.225Z,92721.64
2018-06-29T09:05:00.241Z,92719.22
2018-06-29T09:07:28.992Z,92728.38
2018-06-29T09:09:57.787Z,92723.39
2018-06-29T09:12:26.700Z,92723.64
2018-06-29T09:14:55.501Z,92731.08
2018-06-29T09:17:24.272Z,92736.89
2018-06-29T09:19:53.321Z,92736.82
2018-06-29T09:22:22.136Z,92739.84
2018-06-29T09:24:50.967Z,92743.81
2018-06-29T09:27:19.731Z,92737.67
2018-06-29T09:29:48.582Z,92733.66
2018-06-29T09:32:17.338Z,92728.80
2018-06-29T09:34:46.192Z,92737.23
2018-06-29T09:37:14.981Z,92730.57
2018-06-29T09:39:43.780Z,92732.63
2018-06-29T09:42:12.709Z,92740.17
2018-06-29T09:44:41.511Z,92735.25
2018-06-29T09:47:10.302Z,92731.75
2018-06-29T09:49:39.475Z,92732.38
2018-06-29T09:52:08.339Z,92736.41
2018-06-29T09:54:37.160Z,92733.38
2018-06-29T09:57:06.979Z,92733.77
2018-06-29T09:59:35.780Z,92741.66
2018-06-29T10:02:04.750Z,92741.89
2018-06-29T10:04:33.566Z,92745.84
2018-06-29T10:07:02.380Z,92742.97
2018-06-29T10:09:31.151Z,92744.40
2018-06-29T10:12:00.192Z,92743.44
2018-06-29T10:14:29.103Z,92745.61
2018-06-29T10:16:57.870Z,92737.02
2018-06-29T10:19:26.877Z,92739.18
2018-06-29T10:21:55.736Z,92745.91
2018-06-29T10:24:24.618Z,92729.95
2018-06-29T10:26:53.445Z,92734.08
2018-06-29T10:29:22.260Z,92733.11
2018-06-29T10:31:51.040Z,92737.99
2018-06-29T10:34:19.870Z,92736.44
2018-06-29T10:36:48.738Z,92744.03
2018-06-29T10:39:17.504Z,92741.45
2018-06-29T10:41:46.396Z,92744.01
2018-06-29T10:44:15.177Z,92751.62
2018-06-29T10:46:43.975Z,92749.71
2018-06-29T10:49:12.796Z,92745.85
2018-06-29T10:51:41.557Z,92751.56
2018-06-29T10:54:10.361Z,92753.13
2018-06-29T10:56:39.281Z,92749.70
2018-06-29T10:59:08.086Z,92749.27
2018-06-29T11:01:36.880Z,92743.16
2018-06-29T11:04:05.734Z,92735.20
2018-06-29T11:06:34.526Z,92734.98
2018-06-29T11:09:03.487Z,92742.27
2018-06-29T11:11:32.437Z,92732.70
2018-06-29T11:14:01.293Z,92736.23
2018-06-29T11:16:30.121Z,92738.66
2018-06-29T11:18:59.274Z,92740.90
2018-06-29T11:21:29.031Z,92739.87
2018-06-29T11:23:57.846Z,92741.30
2018-06-29T11:26:26.773Z,92739.75
2018-06-29T11:28:55.738Z,92739.99
2018-06-29T11:31:24.544Z,92738.92
2018-06-29T11:33:53.545Z,92737.48
2018-06-29T11:36:22.377Z,92734.80
2018-06-29T11:38:51.172Z,92739.53
2018-06-29T11:41:20.096Z,92736.36
2018-06-29T11:43:48.928Z,92737.17
2018-06-29T11:46:17.765Z,92741.93
2018-06-29T11:48:46.724Z,92739.88
2018-06-29T11:51:15.465Z,92745.93
2018-06-29T11:53:44.263Z,92751.91
2018-06-29T11:56:13.111Z,92758.22
2018-06-29T11:58:41.909Z,92760.78
2018-06-29T12:01:10.773Z,92753.75
2018-06-29T12:03:39.637Z,92753.92
2018-06-29T12:06:08.445Z,92750.42
2018-06-29T12:08:37.296Z,92750.22
2018-06-29T12:11:06.701Z,92745.27
2018-06-29T12:13:35.526Z,92742.45
2018-06-29T12:16:04.327Z,92742.87
2018-06-29T12:18:33.203Z,92748.89
2018-06-29T12:21:02.007Z,92740.44
2018-06-29T12:23:30.802Z,92739.22
2018-06-29T12:25:59.751Z,92739.02
2018-06-29T12:28:28.640Z,92739.16
2018-06-29T12:30:57.990Z,92739.72
2018-06-29T12:33:26.831Z,92744.87
2018-06-29T12:35:55.642Z,92737.74
2018-06-29T12:38:24.415Z,92743.36
2018-06-29T12:40:53.313Z,92744.30
2018-06-29T12:43:22.246Z,92736.31
2018-06-29T12:45:51.085Z,92740.39
2018-06-29T12:48:19.905Z,92734.09
2018-06-29T12:50:48.684Z,92740.80
2018-06-29T12:53:17.463Z,92738.81
2018-06-29T12:55:46.438Z,92739.35
2018-06-29T12:58:15.281Z,92737.98
2018-06-29T13:00:44.130Z,92733.53
2018-06-29T13:03:13.134Z,92735.08
2018-06-29T13:05:42.054Z,92729.45
2018-06-29T13:08:10.837Z,92739.00
2018-06-29T13:10:39.642Z,92741.95
2018-06-29T13:13:08.442Z,92735.53
2018-06-29T13:15:37.274Z,92730.48
2018-06-29T13:18:06.200Z,92725.66
2018-06-29T13:20:35.006Z,92730.66
2018-06-29T13:23:03.960Z,92726.19
2018-06-29T13:25:33.079Z,92726.08
2018-06-29T13:28:01.884Z,92722.91
2018-06-29T13:30:30.676Z,92717.11
2018-06-29T13:32:59.473Z,92732.53
2018-06-29T13:35:28.265Z,92725.16
2018-06-29T13:37:57.106Z,92725.82
2018-06-29T13:40:25.928Z,92722.81
2018-06-29T13:42:54.727Z,92715.83
2018-06-29T13:45:23.540Z,92715.23
2018-06-29T13:47:52.356Z,92703.65
2018-06-29T13:50:21.134Z,92720.17
2018-06-29T13:52:49.927Z,92722.05
2018-06-29T13:55:18.744Z,92721.33
2018-06-29T13:57:47.550Z,92721.80
2018-06-29T14:00:16.344Z,92724.55
2018-06-29T14:02:45.362Z,92716.84
2018-06-29T14:05:14.497Z,92721.54
2018-06-29T14:07:43.340Z,92711.30
2018-06-29T14:10:12.347Z,92707.06
2018-06-29T14:12:41.153Z,92712.27
2018-06-29T14:15:10.928Z,92716.30
2018-06-29T14:17:39.774Z,92704.72
2018-06-29T14:20:08.643Z,92713.34
2018-06-29T14:22:37.473Z,92711.81
2018-06-29T14:25:06.705Z,92718.81
2018-06-29T14:27:35.512Z,92711.95
2018-06-29T14:30:04.456Z,92722.63
2018-06-29T14:32:33.362Z,92718.47
2018-06-29T14:35:02.234Z,92714.94
2018-06-29T14:37:31.023Z,92705.62
2018-06-29T14:40:00.012Z,92710.91
2018-06-29T14:42:28.814Z,92709.84
2018-06-29T14:44:57.611Z,92706.40
2018-06-29T14:47:26.404Z,92706.02
2018-06-29T14:49:55.181Z,92699.86
2018-06-29T14:52:23.966Z,92698.97
2018-06-29T14:54:52.916Z,92697.89
2018-06-29T14:57:21.729Z,92695.09
2018-06-29T14:59:50.533Z,92698.91
2018-06-29T15:02:19.482Z,92700.95
2018-06-29T15:04:48.300Z,92697.55
2018-06-29T15:07:17.100Z,92695.03
2018-06-29T15:09:45.921Z,92685.91
2018-06-29T15:12:14.727Z,92693.61
2018-06-29T15:14:43.530Z,92691.27
2018-06-29T15:17:12.348Z,92689.39
2018-06-29T15:19:41.173Z,92691.13
2018-06-29T15:22:09.994Z,92694.34
2018-06-29T15:24:38.843Z,92688.86
2018-06-29T15:27:07.640Z,92684.71
2018-06-29T15:29:36.452Z,92689.48
2018-06-29T15:32:05.469Z,92684.51
2018-06-29T15:34:34.245Z,92697.58
2018-06-29T15:37:03.060Z,92684.34
2018-06-29T15:39:31.967Z,92681.48
2018-06-29T15:42:00.748Z,92676.46
2018-06-29T15:44:29.547Z,92694.32
2018-06-29T15:46:58.406Z,92690.25
2018-06-29T15:49:27.225Z,92695.67
2018-06-29T15:51:56.024Z,92689.75
2018-06-29T15:54:25.295Z,92679.62
2018-06-29T15:56:54.109Z,92685.98
2018-06-29T15:59:22.968Z,92690.08
2018-06-29T16:01:51.829Z,92686.97
2018-06-29T16:04:20.659Z,92695.27
2018-06-29T16:06:49.510Z,92698.87
2018-06-29T16:09:18.424Z,92703.36
2018-06-29T16:11:47.249Z,92701.66
2018-06-29T16:14:16.068Z,92699.27
2018-06-29T16:16:45.063Z,92697.67
2018-06-29T16:19:13.857Z,92704.56
2018-06-29T16:21:42.709Z,92701.59
2018-06-29T16:24:11.687Z,92703.12
2018-06-29T16:26:40.484Z,92711.44
2018-06-29T16:29:09.358Z,92710.74
2018-06-29T16:31:38.160Z,92719.36
2018-06-29T16:34:06.940Z,92721.09
